createdAt,value
2023-06-16T00:00:55.562Z,482.00
2023-06-16T00:01:55.674Z,481.00
2023-06-16T00:02:55.680Z,484.00
2023-06-16T00:03:55.730Z,485.00
2023-06-16T00:04:55.685Z,487.00
2023-06-16T00:05:55.707Z,490.00
2023-06-16T00:06:55.753Z,489.00
2023-06-16T00:07:55.771Z,488.00
2023-06-16T00:08:55.802Z,488.00
2023-06-16T00:09:54.837Z,490.00
2023-06-16T00:10:54.790Z,490.00
2023-06-16T00:11:54.790Z,491.00
2023-06-16T00:12:55.808Z,492.00
2023-06-16T00:13:55.827Z,492.00
2023-06-16T00:14:55.840Z,492.00
2023-06-16T00:15:55.839Z,489.00
2023-06-16T00:16:55.841Z,489.00
2023-06-16T00:17:55.874Z,492.00
2023-06-16T00:18:55.864Z,492.00
2023-06-16T00:19:55.929Z,492.00
2023-06-16T00:20:54.969Z,496.00
2023-06-16T00:21:55.911Z,497.00
2023-06-16T00:22:54.915Z,496.00
2023-06-16T00:23:55.975Z,496.00
2023-06-16T00:24:54.960Z,494.00
2023-06-16T00:25:54.951Z,495.00
2023-06-16T00:26:54.981Z,492.00
2023-06-16T00:27:55.978Z,492.00
2023-06-16T00:28:55.954Z,495.00
2023-06-16T00:29:55.975Z,495.00
2023-06-16T00:30:55.976Z,495.00
2023-06-16T00:31:55.986Z,491.00
2023-06-16T00:32:56.074Z,489.00
2023-06-16T00:33:56.009Z,494.00
2023-06-16T00:34:56.056Z,492.00
2023-06-16T00:35:56.086Z,492.00
2023-06-16T00:36:56.091Z,493.00
2023-06-16T00:37:56.071Z,490.00
2023-06-16T00:38:56.076Z,489.00
2023-06-16T00:39:56.148Z,491.00
2023-06-16T00:40:56.114Z,491.00
2023-06-16T00:41:56.110Z,489.00
2023-06-16T00:42:56.133Z,491.00
2023-06-16T00:43:56.123Z,493.00
2023-06-16T00:44:55.150Z,494.00
2023-06-16T00:45:56.163Z,491.00
2023-06-16T00:46:56.264Z,494.00
2023-06-16T00:47:56.323Z,493.00
2023-06-16T00:48:56.193Z,492.00
2023-06-16T00:49:56.210Z,489.00
2023-06-16T00:50:56.245Z,489.00
2023-06-16T00:51:56.229Z,490.00
2023-06-16T00:52:56.235Z,488.00
2023-06-16T00:53:56.275Z,488.00
2023-06-16T00:54:56.256Z,485.00
2023-06-16T00:55:56.269Z,485.00
2023-06-16T00:56:56.282Z,487.00
2023-06-16T00:57:56.293Z,484.00
2023-06-16T00:58:56.302Z,478.00
2023-06-16T00:59:56.301Z,475.00
2023-06-16T01:00:56.326Z,479.00
2023-06-16T01:01:56.352Z,481.00
2023-06-16T01:02:56.484Z,484.00
2023-06-16T01:03:56.366Z,485.00
2023-06-16T01:04:55.394Z,486.00
2023-06-16T01:05:56.406Z,485.00
2023-06-16T01:06:56.403Z,487.00
2023-06-16T01:07:55.424Z,490.00
2023-06-16T01:08:56.412Z,493.00
2023-06-16T01:09:56.445Z,495.00
2023-06-16T01:10:56.434Z,495.00
2023-06-16T01:11:55.467Z,495.00
2023-06-16T01:12:56.483Z,492.00
2023-06-16T01:13:56.464Z,491.00
2023-06-16T01:14:55.500Z,494.00
2023-06-16T01:15:56.497Z,495.00
2023-06-16T01:16:55.527Z,492.00
2023-06-16T01:17:56.564Z,484.00
2023-06-16T01:18:56.588Z,486.00
2023-06-16T01:19:56.596Z,486.00
2023-06-16T01:20:56.637Z,489.00
2023-06-16T01:21:55.597Z,488.00
2023-06-16T01:22:56.613Z,492.00
2023-06-16T01:23:56.679Z,487.00
2023-06-16T01:24:56.628Z,487.00
2023-06-16T01:25:55.644Z,490.00
2023-06-16T01:26:56.658Z,487.00
2023-06-16T01:27:56.660Z,487.00
2023-06-16T01:28:56.674Z,487.00
2023-06-16T01:29:56.677Z,488.00
2023-06-16T01:30:55.714Z,488.00
2023-06-16T01:31:56.703Z,488.00
2023-06-16T01:32:56.754Z,487.00
2023-06-16T01:33:56.708Z,487.00
2023-06-16T01:34:56.723Z,488.00
2023-06-16T01:35:56.721Z,490.00
2023-06-16T01:36:55.804Z,489.00
2023-06-16T01:37:55.791Z,490.00
2023-06-16T01:38:56.807Z,492.00
2023-06-16T01:39:56.797Z,493.00
2023-06-16T01:40:56.803Z,488.00
2023-06-16T01:41:56.828Z,487.00
2023-06-16T01:42:56.859Z,487.00
2023-06-16T01:43:56.851Z,485.00
2023-06-16T01:44:56.893Z,490.00
2023-06-16T01:45:56.982Z,491.00
2023-06-16T01:46:55.958Z,496.00
2023-06-16T01:47:56.885Z,494.00
2023-06-16T01:48:56.912Z,493.00
2023-06-16T01:49:56.928Z,492.00
2023-06-16T01:50:56.963Z,492.00
2023-06-16T01:51:57.018Z,491.00
2023-06-16T01:52:55.998Z,490.00
2023-06-16T01:53:57.018Z,492.00
2023-06-16T01:54:57.055Z,492.00
2023-06-16T01:55:57.072Z,495.00
2023-06-16T01:56:57.061Z,494.00
2023-06-16T01:57:57.114Z,493.00
2023-06-16T01:58:57.105Z,494.00
2023-06-16T01:59:56.158Z,491.00
2023-06-16T02:00:56.169Z,494.00
2023-06-16T02:01:57.196Z,493.00
2023-06-16T02:02:57.309Z,493.00
2023-06-16T02:03:57.254Z,493.00
2023-06-16T02:04:56.253Z,491.00
2023-06-16T02:05:57.233Z,493.00
2023-06-16T02:06:57.239Z,491.00
2023-06-16T02:07:57.262Z,491.00
2023-06-16T02:08:57.360Z,490.00
2023-06-16T02:09:57.313Z,492.00
2023-06-16T02:10:57.312Z,490.00
2023-06-16T02:11:57.335Z,490.00
2023-06-16T02:12:56.354Z,489.00
2023-06-16T02:13:57.367Z,489.00
2023-06-16T02:14:56.439Z,489.00
2023-06-16T02:15:57.456Z,489.00
2023-06-16T02:16:57.515Z,491.00
2023-06-16T02:17:57.502Z,487.00
2023-06-16T02:18:57.498Z,487.00
2023-06-16T02:19:57.500Z,487.00
2023-06-16T02:20:57.563Z,488.00
2023-06-16T02:21:56.556Z,486.00
2023-06-16T02:22:57.600Z,488.00
2023-06-16T02:23:57.684Z,488.00
2023-06-16T02:24:57.651Z,487.00
2023-06-16T02:25:57.678Z,486.00
2023-06-16T02:26:57.740Z,486.00
2023-06-16T02:27:57.795Z,488.00
2023-06-16T02:28:57.781Z,490.00
2023-06-16T02:29:56.816Z,489.00
2023-06-16T02:30:57.877Z,490.00
2023-06-16T02:31:57.893Z,492.00
2023-06-16T02:33:02.575Z,494.00
2023-06-16T02:33:57.920Z,494.00
2023-06-16T02:34:56.896Z,493.00
2023-06-16T02:35:57.888Z,494.00
2023-06-16T02:36:57.917Z,493.00
2023-06-16T02:37:57.878Z,490.00
2023-06-16T02:38:57.888Z,489.00
2023-06-16T02:39:57.928Z,491.00
2023-06-16T02:40:57.871Z,489.00
2023-06-16T02:41:57.863Z,493.00
2023-06-16T02:42:56.841Z,492.00
2023-06-16T02:43:56.876Z,489.00
2023-06-16T02:44:57.825Z,489.00
2023-06-16T02:45:56.854Z,486.00
2023-06-16T02:46:56.838Z,486.00
2023-06-16T02:47:57.830Z,485.00
2023-06-16T02:48:57.789Z,485.00
2023-06-16T02:49:57.802Z,486.00
2023-06-16T02:50:57.771Z,486.00
2023-06-16T02:51:57.801Z,487.00
2023-06-16T02:52:57.772Z,486.00
2023-06-16T02:53:56.797Z,487.00
2023-06-16T02:54:57.763Z,490.00
2023-06-16T02:55:56.744Z,492.00
2023-06-16T02:56:56.742Z,488.00
2023-06-16T02:57:57.768Z,488.00
2023-06-16T02:58:56.733Z,487.00
2023-06-16T02:59:57.741Z,490.00
2023-06-16T03:00:57.738Z,493.00
2023-06-16T03:01:56.729Z,494.00
2023-06-16T03:02:57.830Z,492.00
2023-06-16T03:03:57.764Z,489.00
2023-06-16T03:04:57.731Z,490.00
2023-06-16T03:05:57.698Z,491.00
2023-06-16T03:06:57.650Z,493.00
2023-06-16T03:07:57.677Z,497.00
2023-06-16T03:08:56.633Z,499.00
2023-06-16T03:09:57.628Z,498.00
2023-06-16T03:10:56.657Z,500.00
2023-06-16T03:11:57.636Z,497.00
2023-06-16T03:12:57.628Z,495.00
2023-06-16T03:13:56.622Z,494.00
2023-06-16T03:14:57.593Z,495.00
2023-06-16T03:15:57.595Z,494.00
2023-06-16T03:16:57.705Z,492.00
2023-06-16T03:17:58.253Z,496.00
2023-06-16T03:18:57.615Z,498.00
2023-06-16T03:19:56.620Z,498.00
2023-06-16T03:20:57.615Z,496.00
2023-06-16T03:21:56.588Z,493.00
2023-06-16T03:22:57.610Z,493.00
2023-06-16T03:23:57.656Z,493.00
2023-06-16T03:24:56.577Z,494.00
2023-06-16T03:25:57.576Z,493.00
2023-06-16T03:26:57.563Z,491.00
2023-06-16T03:27:57.726Z,495.00
2023-06-16T03:28:56.536Z,497.00
2023-06-16T03:29:57.535Z,498.00
2023-06-16T03:30:57.550Z,497.00
2023-06-16T03:31:57.577Z,494.00
2023-06-16T03:32:57.594Z,495.00
2023-06-16T03:34:04.362Z,493.00
2023-06-16T03:34:57.500Z,495.00
2023-06-16T03:35:56.489Z,496.00
2023-06-16T03:36:57.502Z,495.00
2023-06-16T03:37:56.490Z,495.00
2023-06-16T03:38:57.475Z,495.00
2023-06-16T03:39:57.465Z,493.00
2023-06-16T03:40:56.530Z,491.00
2023-06-16T03:41:57.497Z,492.00
2023-06-16T03:42:57.438Z,495.00
2023-06-16T03:43:57.468Z,495.00
2023-06-16T03:44:57.459Z,496.00
2023-06-16T03:45:56.451Z,499.00
2023-06-16T03:46:57.452Z,500.00
2023-06-16T03:47:57.471Z,503.00
2023-06-16T03:48:57.429Z,500.00
2023-06-16T03:49:57.419Z,500.00
2023-06-16T03:50:57.388Z,497.00
2023-06-16T03:51:57.392Z,499.00
2023-06-16T03:53:13.986Z,496.00
2023-06-16T03:53:57.374Z,498.00
2023-06-16T03:54:57.360Z,499.00
2023-06-16T03:55:57.392Z,499.00
2023-06-16T03:56:57.345Z,498.00
2023-06-16T03:57:56.337Z,500.00
2023-06-16T03:58:57.326Z,502.00
2023-06-16T03:59:57.324Z,501.00
2023-06-16T04:00:57.303Z,500.00
2023-06-16T04:01:57.337Z,503.00
2023-06-16T04:02:57.385Z,502.00
2023-06-16T04:03:57.367Z,505.00
2023-06-16T04:04:57.293Z,505.00
2023-06-16T04:05:57.284Z,507.00
2023-06-16T04:06:57.275Z,506.00
2023-06-16T04:07:57.285Z,506.00
2023-06-16T04:08:57.261Z,505.00
2023-06-16T04:09:57.243Z,505.00
2023-06-16T04:10:57.243Z,503.00
2023-06-16T04:11:57.226Z,501.00
2023-06-16T04:12:57.231Z,503.00
2023-06-16T04:13:57.267Z,502.00
2023-06-16T04:14:57.207Z,499.00
2023-06-16T04:15:57.186Z,500.00
2023-06-16T04:16:57.207Z,498.00
2023-06-16T04:17:57.203Z,495.00
2023-06-16T04:18:57.179Z,494.00
2023-06-16T04:19:57.222Z,494.00
2023-06-16T04:20:57.209Z,495.00
2023-06-16T04:21:57.148Z,494.00
2023-06-16T04:22:57.142Z,492.00
2023-06-16T04:23:57.186Z,495.00
2023-06-16T04:24:57.152Z,494.00
2023-06-16T04:25:57.153Z,493.00
2023-06-16T04:26:57.143Z,492.00
2023-06-16T04:27:57.135Z,493.00
2023-06-16T04:28:57.186Z,494.00
2023-06-16T04:29:57.182Z,495.00
2023-06-16T04:30:57.163Z,496.00
2023-06-16T04:31:57.176Z,496.00
2023-06-16T04:32:57.231Z,497.00
2023-06-16T04:33:57.280Z,493.00
2023-06-16T04:34:57.277Z,491.00
2023-06-16T04:35:57.351Z,493.00
2023-06-16T04:36:57.339Z,494.00
2023-06-16T04:37:56.390Z,495.00
2023-06-16T04:38:57.442Z,494.00
2023-06-16T04:39:57.521Z,493.00
2023-06-16T04:40:57.499Z,494.00
2023-06-16T04:41:56.554Z,493.00
2023-06-16T04:42:57.573Z,491.00
2023-06-16T04:43:57.639Z,494.00
2023-06-16T04:44:56.684Z,493.00
2023-06-16T04:45:56.704Z,495.00
2023-06-16T04:46:57.832Z,492.00
2023-06-16T04:47:57.849Z,486.00
2023-06-16T04:48:57.830Z,490.00
2023-06-16T04:49:57.875Z,493.00
2023-06-16T04:50:57.913Z,492.00
2023-06-16T04:51:56.961Z,492.00
2023-06-16T04:52:57.978Z,493.00
2023-06-16T04:53:58.025Z,493.00
2023-06-16T04:54:58.109Z,496.00
2023-06-16T04:55:58.086Z,497.00
2023-06-16T04:56:58.136Z,496.00
2023-06-16T04:57:58.204Z,492.00
2023-06-16T04:58:57.240Z,489.00
2023-06-16T04:59:57.256Z,488.00
2023-06-16T05:00:58.298Z,487.00
2023-06-16T05:01:58.384Z,488.00
2023-06-16T05:02:58.539Z,490.00
2023-06-16T05:03:58.683Z,490.00
2023-06-16T05:04:58.488Z,489.00
2023-06-16T05:05:58.532Z,493.00
2023-06-16T05:06:57.493Z,492.00
2023-06-16T05:07:58.833Z,489.00
2023-06-16T05:08:58.629Z,491.00
2023-06-16T05:09:58.666Z,495.00
2023-06-16T05:10:58.887Z,493.00
2023-06-16T05:11:58.845Z,493.00
2023-06-16T05:12:58.799Z,493.00
2023-06-16T05:13:58.820Z,493.00
2023-06-16T05:14:58.799Z,492.00
2023-06-16T05:15:58.843Z,490.00
2023-06-16T05:16:57.906Z,492.00
2023-06-16T05:17:59.040Z,495.00
2023-06-16T05:18:58.063Z,493.00
2023-06-16T05:19:57.996Z,493.00
2023-06-16T05:20:59.021Z,494.00
2023-06-16T05:21:59.081Z,492.00
2023-06-16T05:22:59.097Z,492.00
2023-06-16T05:23:59.209Z,490.00
2023-06-16T05:24:59.255Z,489.00
2023-06-16T05:25:59.224Z,489.00
2023-06-16T05:26:58.195Z,488.00
2023-06-16T05:27:59.289Z,489.00
2023-06-16T05:28:58.323Z,490.00
2023-06-16T05:30:01.091Z,492.00
2023-06-16T05:30:59.387Z,490.00
2023-06-16T05:31:59.344Z,490.00
2023-06-16T05:32:59.435Z,491.00
2023-06-16T05:33:59.320Z,489.00
2023-06-16T05:34:59.352Z,488.00
2023-06-16T05:35:59.351Z,490.00
2023-06-16T05:36:59.267Z,494.00
2023-06-16T05:37:59.264Z,494.00
2023-06-16T05:38:59.226Z,491.00
2023-06-16T05:39:59.303Z,491.00
2023-06-16T05:40:58.288Z,487.00
2023-06-16T05:41:59.277Z,485.00
2023-06-16T05:42:59.286Z,488.00
2023-06-16T05:43:59.323Z,488.00
2023-06-16T05:44:59.230Z,486.00
2023-06-16T05:45:59.281Z,490.00
2023-06-16T05:46:58.169Z,492.00
2023-06-16T05:47:58.214Z,491.00
2023-06-16T05:48:58.144Z,491.00
2023-06-16T05:49:59.137Z,492.00
2023-06-16T05:50:59.198Z,495.00
2023-06-16T05:51:58.202Z,497.00
2023-06-16T05:52:59.230Z,496.00
2023-06-16T05:53:59.133Z,494.00
2023-06-16T05:54:59.232Z,496.00
2023-06-16T05:55:59.343Z,498.00
2023-06-16T05:56:59.105Z,500.00
2023-06-16T05:57:59.073Z,502.00
2023-06-16T05:58:59.104Z,502.00
2023-06-16T05:59:59.090Z,502.00
2023-06-16T06:00:59.131Z,500.00
2023-06-16T06:01:59.082Z,500.00
2023-06-16T06:02:58.183Z,497.00
2023-06-16T06:03:59.234Z,497.00
2023-06-16T06:04:58.128Z,496.00
2023-06-16T06:05:58.109Z,495.00
2023-06-16T06:06:58.035Z,495.00
2023-06-16T06:07:59.041Z,498.00
2023-06-16T06:08:59.032Z,499.00
2023-06-16T06:09:58.022Z,500.00
2023-06-16T06:10:58.046Z,501.00
2023-06-16T06:11:59.006Z,500.00
2023-06-16T06:12:58.975Z,501.00
2023-06-16T06:13:57.975Z,500.00
2023-06-16T06:14:58.992Z,499.00
2023-06-16T06:15:59.027Z,499.00
2023-06-16T06:16:59.302Z,500.00
2023-06-16T06:17:59.053Z,499.00
2023-06-16T06:18:59.184Z,503.00
2023-06-16T06:19:58.944Z,501.00
2023-06-16T06:20:57.912Z,499.00
2023-06-16T06:21:58.978Z,498.00
2023-06-16T06:22:58.944Z,498.00
2023-06-16T06:23:58.990Z,497.00
2023-06-16T06:24:58.017Z,493.00
2023-06-16T06:25:59.027Z,491.00
2023-06-16T06:26:58.122Z,491.00
2023-06-16T06:27:59.107Z,490.00
2023-06-16T06:28:58.058Z,491.00
2023-06-16T06:29:59.101Z,492.00
2023-06-16T06:30:59.181Z,492.00
2023-06-16T06:31:59.146Z,491.00
2023-06-16T06:32:59.302Z,490.00
2023-06-16T06:33:59.226Z,492.00
2023-06-16T06:34:59.313Z,491.00
2023-06-16T06:35:59.379Z,491.00
2023-06-16T06:36:59.340Z,490.00
2023-06-16T06:37:59.357Z,492.00
2023-06-16T06:38:59.433Z,495.00
2023-06-16T06:39:58.526Z,496.00
2023-06-16T06:40:59.462Z,497.00
2023-06-16T06:41:59.719Z,495.00
2023-06-16T06:42:59.593Z,498.00
2023-06-16T06:43:59.613Z,495.00
2023-06-16T06:44:59.563Z,494.00
2023-06-16T06:45:59.718Z,491.00
2023-06-16T06:46:58.612Z,492.00
2023-06-16T06:47:59.779Z,492.00
2023-06-16T06:48:59.735Z,488.00
2023-06-16T06:49:58.794Z,488.00
2023-06-16T06:50:59.824Z,491.00
2023-06-16T06:51:59.841Z,494.00
2023-06-16T06:52:59.895Z,496.00
2023-06-16T06:54:00.211Z,498.00
2023-06-16T06:55:00.051Z,497.00
2023-06-16T06:56:00.068Z,496.00
2023-06-16T06:57:00.132Z,494.00
2023-06-16T06:58:00.171Z,496.00
2023-06-16T06:58:59.151Z,495.00
2023-06-16T06:59:59.262Z,496.00
2023-06-16T07:01:00.229Z,497.00
2023-06-16T07:02:00.274Z,495.00
2023-06-16T07:03:00.687Z,495.00
2023-06-16T07:04:00.421Z,494.00
2023-06-16T07:05:00.375Z,494.00
2023-06-16T07:06:00.428Z,493.00
2023-06-16T07:06:59.516Z,495.00
2023-06-16T07:08:00.551Z,495.00
2023-06-16T07:09:00.636Z,498.00
2023-06-16T07:10:00.574Z,500.00
2023-06-16T07:11:00.679Z,500.00
2023-06-16T07:12:00.683Z,503.00
2023-06-16T07:13:00.793Z,501.00
2023-06-16T07:14:00.759Z,499.00
2023-06-16T07:15:00.806Z,497.00
2023-06-16T07:16:00.997Z,496.00
2023-06-16T07:17:00.953Z,492.00
2023-06-16T07:18:00.979Z,492.00
2023-06-16T07:19:00.978Z,491.00
2023-06-16T07:20:01.183Z,492.00
2023-06-16T07:21:01.214Z,492.00
2023-06-16T07:22:01.192Z,493.00
2023-06-16T07:23:01.173Z,493.00
2023-06-16T07:24:01.291Z,492.00
2023-06-16T07:25:01.284Z,490.00
2023-06-16T07:26:01.302Z,488.00
2023-06-16T07:27:01.428Z,486.00
2023-06-16T07:28:00.366Z,487.00
2023-06-16T07:29:02.458Z,489.00
2023-06-16T07:30:00.661Z,488.00
2023-06-16T07:31:01.528Z,489.00
2023-06-16T07:32:01.581Z,490.00
2023-06-16T07:33:01.682Z,491.00
2023-06-16T07:34:01.688Z,490.00
2023-06-16T07:35:01.713Z,493.00
2023-06-16T07:36:00.822Z,490.00
2023-06-16T07:37:01.825Z,488.00
2023-06-16T07:38:01.896Z,490.00
2023-06-16T07:39:01.894Z,492.00
2023-06-16T07:40:04.048Z,493.00
2023-06-16T07:41:02.020Z,497.00
2023-06-16T07:42:00.892Z,499.00
2023-06-16T07:43:00.954Z,498.00
2023-06-16T07:44:01.925Z,499.00
2023-06-16T07:45:00.939Z,500.00
2023-06-16T07:46:01.919Z,500.00
2023-06-16T07:47:01.867Z,502.00
2023-06-16T07:48:02.201Z,499.00
2023-06-16T07:49:02.186Z,498.00
2023-06-16T07:50:02.609Z,499.00
2023-06-16T07:51:01.823Z,498.00
2023-06-16T07:52:01.811Z,497.00
2023-06-16T07:53:01.850Z,498.00
2023-06-16T07:54:02.214Z,495.00
2023-06-16T07:55:01.893Z,495.00
2023-06-16T07:56:01.901Z,496.00
2023-06-16T07:57:01.968Z,497.00
2023-06-16T07:58:01.015Z,498.00
2023-06-16T07:59:00.995Z,498.00
2023-06-16T08:00:01.057Z,495.00
2023-06-16T08:01:01.123Z,492.00
2023-06-16T08:02:02.121Z,494.00
2023-06-16T08:03:02.330Z,495.00
2023-06-16T08:04:10.445Z,496.00
2023-06-16T08:05:02.258Z,494.00
2023-06-16T08:06:01.178Z,496.00
2023-06-16T08:07:02.186Z,498.00
2023-06-16T08:08:02.155Z,499.00
2023-06-16T08:09:01.213Z,499.00
2023-06-16T08:10:01.151Z,501.00
2023-06-16T08:11:02.130Z,500.00
2023-06-16T08:12:01.140Z,502.00
2023-06-16T08:13:01.118Z,505.00
2023-06-16T08:14:02.124Z,503.00
2023-06-16T08:15:01.209Z,504.00
2023-06-16T08:16:02.137Z,506.00
2023-06-16T08:17:02.089Z,504.00
2023-06-16T08:18:02.134Z,504.00
2023-06-16T08:19:02.091Z,503.00
2023-06-16T08:20:02.220Z,502.00
2023-06-16T08:21:02.105Z,506.00
2023-06-16T08:22:01.061Z,507.00
2023-06-16T08:23:01.059Z,504.00
2023-06-16T08:24:02.064Z,503.00
2023-06-16T08:25:02.027Z,503.00
2023-06-16T08:26:01.059Z,504.00
2023-06-16T08:27:01.019Z,504.00
2023-06-16T08:28:02.015Z,506.00
2023-06-16T08:29:02.009Z,509.00
2023-06-16T08:30:01.014Z,511.00
2023-06-16T08:31:01.022Z,511.00
2023-06-16T08:32:01.988Z,509.00
2023-06-16T08:33:02.019Z,508.00
2023-06-16T08:34:01.992Z,509.00
2023-06-16T08:35:00.980Z,510.00
2023-06-16T08:36:01.014Z,511.00
2023-06-16T08:37:03.417Z,508.00
2023-06-16T08:38:01.949Z,507.00
2023-06-16T08:39:01.976Z,510.00
2023-06-16T08:40:02.009Z,513.00
2023-06-16T08:41:02.063Z,512.00
2023-06-16T08:42:01.097Z,511.00
2023-06-16T08:43:02.140Z,508.00
2023-06-16T08:44:02.172Z,508.00
2023-06-16T08:45:02.237Z,509.00
2023-06-16T08:46:02.314Z,512.00
2023-06-16T08:47:01.281Z,511.00
2023-06-16T08:48:02.361Z,513.00
2023-06-16T08:49:01.377Z,512.00
2023-06-16T08:50:01.470Z,513.00
2023-06-16T08:51:02.461Z,509.00
2023-06-16T08:52:01.701Z,512.00
2023-06-16T08:53:02.587Z,512.00
2023-06-16T08:54:02.619Z,511.00
2023-06-16T08:55:02.654Z,511.00
2023-06-16T08:56:01.701Z,515.00
2023-06-16T08:57:02.759Z,514.00
2023-06-16T08:58:01.797Z,513.00
2023-06-16T08:59:01.832Z,513.00
2023-06-16T09:00:01.878Z,510.00
2023-06-16T09:01:01.955Z,512.00
2023-06-16T09:02:02.976Z,512.00
2023-06-16T09:03:03.040Z,510.00
2023-06-16T09:04:02.087Z,509.00
2023-06-16T09:05:03.098Z,511.00
2023-06-16T09:06:03.170Z,512.00
2023-06-16T09:07:02.205Z,513.00
2023-06-16T09:08:05.585Z,511.00
2023-06-16T09:09:02.228Z,512.00
2023-06-16T09:10:03.245Z,512.00
2023-06-16T09:11:03.226Z,512.00
2023-06-16T09:12:03.218Z,514.00
2023-06-16T09:13:03.191Z,510.00
2023-06-16T09:14:03.201Z,511.00
2023-06-16T09:15:02.191Z,509.00
2023-06-16T09:16:03.245Z,508.00
2023-06-16T09:17:02.174Z,509.00
2023-06-16T09:18:03.191Z,510.00
2023-06-16T09:19:03.165Z,510.00
2023-06-16T09:20:03.168Z,509.00
2023-06-16T09:21:02.196Z,510.00
2023-06-16T09:22:03.140Z,514.00
2023-06-16T09:23:03.126Z,515.00
2023-06-16T09:24:02.204Z,517.00
2023-06-16T09:25:03.119Z,513.00
2023-06-16T09:26:03.130Z,510.00
2023-06-16T09:27:03.114Z,508.00
2023-06-16T09:28:03.098Z,503.00
2023-06-16T09:29:02.083Z,506.00
2023-06-16T09:30:02.096Z,509.00
2023-06-16T09:31:11.514Z,504.00
2023-06-16T09:32:03.079Z,504.00
2023-06-16T09:33:03.109Z,504.00
2023-06-16T09:34:03.070Z,503.00
2023-06-16T09:35:03.055Z,502.00
2023-06-16T09:36:03.047Z,501.00
2023-06-16T09:37:02.038Z,505.00
2023-06-16T09:38:03.033Z,511.00
2023-06-16T09:39:03.027Z,509.00
2023-06-16T09:40:03.057Z,506.00
2023-06-16T09:41:03.007Z,505.00
2023-06-16T09:42:02.991Z,508.00
2023-06-16T09:43:02.989Z,511.00
2023-06-16T09:44:02.977Z,509.00
2023-06-16T09:45:03.197Z,509.00
2023-06-16T09:46:03.020Z,512.00
2023-06-16T09:47:02.966Z,515.00
2023-06-16T09:48:03.111Z,516.00
2023-06-16T09:49:01.945Z,515.00
2023-06-16T09:50:03.207Z,515.00
2023-06-16T09:51:02.931Z,515.00
2023-06-16T09:52:02.943Z,519.00
2023-06-16T09:53:01.919Z,518.00
2023-06-16T09:54:02.943Z,518.00
2023-06-16T09:55:02.970Z,520.00
2023-06-16T09:56:01.942Z,519.00
2023-06-16T09:57:02.908Z,523.00
2023-06-16T09:58:02.893Z,527.00
2023-06-16T09:59:02.903Z,530.00
2023-06-16T10:00:02.923Z,532.00
2023-06-16T10:01:02.951Z,535.00
2023-06-16T10:02:02.969Z,539.00
2023-06-16T10:03:03.107Z,545.00
2023-06-16T10:04:03.168Z,548.00
2023-06-16T10:05:02.125Z,548.00
2023-06-16T10:06:03.156Z,548.00
2023-06-16T10:07:02.367Z,552.00
2023-06-16T10:08:03.257Z,553.00
2023-06-16T10:09:02.297Z,554.00
2023-06-16T10:10:04.633Z,559.00
2023-06-16T10:11:02.401Z,558.00
2023-06-16T10:12:03.449Z,562.00
2023-06-16T10:13:03.476Z,560.00
2023-06-16T10:14:03.532Z,559.00
2023-06-16T10:15:03.560Z,555.00
2023-06-16T10:16:03.612Z,553.00
2023-06-16T10:17:03.674Z,554.00
2023-06-16T10:18:07.913Z,551.00
2023-06-16T10:19:03.843Z,550.00
2023-06-16T10:20:02.697Z,546.00
2023-06-16T10:21:03.697Z,541.00
2023-06-16T10:22:02.662Z,537.00
2023-06-16T10:23:03.654Z,538.00
2023-06-16T10:24:05.611Z,538.00
2023-06-16T10:25:03.643Z,544.00
2023-06-16T10:26:02.647Z,548.00
2023-06-16T10:27:02.644Z,553.00
2023-06-16T10:28:03.660Z,556.00
2023-06-16T10:29:03.628Z,556.00
2023-06-16T10:30:03.623Z,558.00
2023-06-16T10:31:02.644Z,562.00
2023-06-16T10:32:03.611Z,563.00
2023-06-16T10:33:03.635Z,563.00
2023-06-16T10:34:03.596Z,569.00
2023-06-16T10:35:03.582Z,571.00
2023-06-16T10:37:02.581Z,568.00
2023-06-16T10:38:02.570Z,568.00
2023-06-16T10:39:03.559Z,569.00
2023-06-16T10:40:03.560Z,570.00
2023-06-16T10:41:03.552Z,566.00
2023-06-16T10:42:03.577Z,564.00
2023-06-16T10:43:02.532Z,566.00
2023-06-16T10:44:03.564Z,564.00
2023-06-16T10:45:02.528Z,563.00
2023-06-16T10:46:03.565Z,561.00
2023-06-16T10:47:02.620Z,559.00
2023-06-16T10:48:03.657Z,560.00
2023-06-16T10:49:03.507Z,561.00
2023-06-16T10:50:03.513Z,559.00
2023-06-16T10:51:03.715Z,557.00
2023-06-16T10:52:03.514Z,557.00
2023-06-16T10:53:03.465Z,558.00
2023-06-16T10:54:02.471Z,557.00
2023-06-16T10:55:03.452Z,555.00
2023-06-16T10:56:02.479Z,555.00
2023-06-16T10:57:11.303Z,559.00
2023-06-16T10:58:03.468Z,560.00
2023-06-16T10:59:03.430Z,560.00
2023-06-16T11:00:03.458Z,559.00
2023-06-16T11:01:03.804Z,560.00
2023-06-16T11:02:03.424Z,557.00
2023-06-16T11:03:02.527Z,556.00
2023-06-16T11:04:03.572Z,556.00
2023-06-16T11:05:02.407Z,558.00
2023-06-16T11:06:03.382Z,556.00
2023-06-16T11:07:11.564Z,560.00
2023-06-16T11:08:03.435Z,564.00
2023-06-16T11:09:03.352Z,567.00
2023-06-16T11:10:03.379Z,568.00
2023-06-16T11:11:03.341Z,568.00
2023-06-16T11:12:03.387Z,569.00
2023-06-16T11:13:03.330Z,565.00
2023-06-16T11:14:03.333Z,564.00
2023-06-16T11:15:02.316Z,561.00
2023-06-16T11:16:03.386Z,563.00
2023-06-16T11:17:03.303Z,567.00
2023-06-16T11:18:03.318Z,570.00
2023-06-16T11:19:02.289Z,571.00
2023-06-16T11:20:03.290Z,574.00
2023-06-16T11:21:03.292Z,577.00
2023-06-16T11:22:03.289Z,582.00
2023-06-16T11:23:03.265Z,585.00
2023-06-16T11:24:03.264Z,583.00
2023-06-16T11:25:02.323Z,586.00
2023-06-16T11:26:03.235Z,586.00
2023-06-16T11:27:03.250Z,588.00
2023-06-16T11:28:03.248Z,586.00
2023-06-16T11:29:02.247Z,586.00
2023-06-16T11:30:02.204Z,581.00
2023-06-16T11:31:03.258Z,582.00
2023-06-16T11:32:03.260Z,583.00
2023-06-16T11:33:03.274Z,581.00
2023-06-16T11:34:03.212Z,579.00
2023-06-16T11:35:03.177Z,580.00
2023-06-16T11:36:03.182Z,579.00
2023-06-16T11:37:03.178Z,579.00
2023-06-16T11:38:02.181Z,577.00
2023-06-16T11:39:03.151Z,578.00
2023-06-16T11:40:03.469Z,579.00
2023-06-16T11:41:11.737Z,578.00
2023-06-16T11:42:03.139Z,574.00
2023-06-16T11:43:03.115Z,573.00
2023-06-16T11:44:03.149Z,574.00
2023-06-16T11:45:02.116Z,574.00
2023-06-16T11:46:02.122Z,575.00
2023-06-16T11:47:03.228Z,576.00
2023-06-16T11:48:03.264Z,576.00
2023-06-16T11:49:03.090Z,575.00
2023-06-16T11:50:03.144Z,574.00
2023-06-16T11:51:03.080Z,570.00
2023-06-16T11:52:02.078Z,573.00
2023-06-16T11:53:03.092Z,571.00
2023-06-16T11:54:02.058Z,572.00
2023-06-16T11:55:03.057Z,571.00
2023-06-16T11:56:02.030Z,572.00
2023-06-16T11:57:02.026Z,572.00
2023-06-16T11:58:02.073Z,572.00
2023-06-16T11:59:03.021Z,573.00
2023-06-16T12:00:03.041Z,574.00
2023-06-16T12:01:02.092Z,576.00
2023-06-16T12:02:02.018Z,578.00
2023-06-16T12:03:03.107Z,575.00
2023-06-16T12:04:06.975Z,573.00
2023-06-16T12:05:03.022Z,571.00
2023-06-16T12:06:02.963Z,569.00
2023-06-16T12:07:05.588Z,570.00
2023-06-16T12:08:02.966Z,570.00
2023-06-16T12:09:02.948Z,573.00
2023-06-16T12:10:02.936Z,576.00
2023-06-16T12:11:01.991Z,576.00
2023-06-16T12:12:01.929Z,575.00
2023-06-16T12:13:01.978Z,580.00
2023-06-16T12:14:02.909Z,577.00
2023-06-16T12:15:02.923Z,574.00
2023-06-16T12:16:01.921Z,572.00
2023-06-16T12:17:02.899Z,571.00
2023-06-16T12:18:02.963Z,572.00
2023-06-16T12:19:02.875Z,571.00
2023-06-16T12:20:02.917Z,571.00
2023-06-16T12:21:02.877Z,571.00
2023-06-16T12:22:02.949Z,572.00
2023-06-16T12:23:02.882Z,569.00
2023-06-16T12:24:02.895Z,570.00
2023-06-16T12:25:02.848Z,569.00
2023-06-16T12:26:02.833Z,569.00
2023-06-16T12:27:02.845Z,569.00
2023-06-16T12:28:01.825Z,567.00
2023-06-16T12:29:02.824Z,570.00
2023-06-16T12:30:02.851Z,572.00